13N weather

Trinca Airport
Andover, New Jersey, United States

Public forecast

Using degrees Fahrenheit for public forecast. Weather courtesy of forecast.io.

METAR (pilot weather report)

Closest report is Aeroflex-Andover Airport, 3.2 nm (5.8 km) NE. Retrieved 2019/04/20 03:54 UTC (14 minutes ago):

K12N 200354Z AUTO 19007KT 130V210 20/18 A2968 RMK AO1 SLP042 P0005 T02000178

TAF (pilot weather forecast)

Forecast is more than 12 hours old.

Closest forecast is Newark Liberty International Airport, 32.3 nm (59.8 km) ESE. Retrieved 2019/04/19 00:42 UTC (1 day ago):

TAF KEWR 192340Z 2000/2106 18015G24KT P6SM VCSH BKN025 WS015/19050KT TEMPO 2000/2003 3SM SHRA BR SCT008 OVC015 FM200900 17014G20KT 3SM SHRA BR SCT008 OVC015 WS015/19045KT PROB30 2009/2013 1SM +TSRA BKN015 OVC030CB FM201400 17014G22KT 4SM SHRA BR OVC012 WS020/19045KT FM201600 17015G22KT P6SM VCSH BKN015 BKN025 FM201900 15016G25KT P6SM SCT030 BKN150 FM210100 16010G17KT P6SM BKN200